Time;durP1;ratioP1;P1;durP2;ratioP2;P2;SDS_P1;SDS_P2;PMS_P1;PMS_P2;Temp;Humidity;BMP_temperature;BMP_pressure;BME280_temperature;BME280_humidity;BME280_pressure;Samples;Min_cycle;Max_cycle;Signal;HPM_P1;HPM_P2
2021/08/21 00:01:39;;;;;;;7.80;4.20;;;;;;;21.44;67.27;98673.19;4927618;28;20486;-71
2021/08/21 00:04:07;;;;;;;6.80;3.92;;;;;;;21.48;67.11;98685.00;4931201;28;20344;-72
2021/08/21 00:06:33;;;;;;;8.55;4.07;;;;;;;21.47;67.25;98686.03;4954898;28;20136;-70
2021/08/21 00:08:59;;;;;;;6.45;3.90;;;;;;;21.49;67.33;98682.13;4936881;28;20415;-71
2021/08/21 00:11:24;;;;;;;7.72;3.63;;;;;;;21.47;67.40;98686.84;4941154;28;20110;-71
2021/08/21 00:13:49;;;;;;;8.07;4.28;;;;;;;21.36;68.05;98671.63;4941408;28;20057;-71
2021/08/21 00:16:15;;;;;;;9.48;4.05;;;;;;;21.42;67.60;98681.34;4967424;28;20054;-72
2021/08/21 00:18:40;;;;;;;7.97;4.10;;;;;;;21.34;68.00;98681.59;4941644;28;20453;-71
2021/08/21 00:21:06;;;;;;;7.82;4.15;;;;;;;21.33;67.87;98673.88;4938120;28;20031;-70
2021/08/21 00:23:31;;;;;;;7.75;4.20;;;;;;;21.34;66.94;98683.41;4943635;28;20077;-70
2021/08/21 00:25:56;;;;;;;6.10;3.80;;;;;;;21.05;67.32;98636.22;4944713;28;20468;-71
2021/08/21 00:28:22;;;;;;;7.57;4.22;;;;;;;21.28;67.36;98677.97;4938384;28;20047;-71
2021/08/21 00:30:47;;;;;;;6.70;3.90;;;;;;;21.29;67.35;98679.59;4942639;28;20042;-72
2021/08/21 00:33:13;;;;;;;11.02;4.25;;;;;;;21.23;67.21;98669.88;4944355;28;20046;-72
2021/08/21 00:35:38;;;;;;;8.02;4.10;;;;;;;21.30;67.27;98694.44;4958359;28;20512;-72
2021/08/21 00:38:04;;;;;;;6.57;3.97;;;;;;;21.27;67.39;98692.22;4938463;28;20149;-72
2021/08/21 00:40:29;;;;;;;7.00;4.10;;;;;;;21.28;67.09;98690.38;4959930;28;20031;-71
2021/08/21 00:42:54;;;;;;;7.47;3.97;;;;;;;21.19;67.56;98696.94;4939831;28;20031;-72
2021/08/21 00:45:20;;;;;;;8.10;4.10;;;;;;;20.97;67.33;98647.00;4942402;28;20505;-72
2021/08/21 00:47:46;;;;;;;8.05;4.30;;;;;;;20.99;67.38;98657.38;4956275;28;20049;-71
2021/08/21 00:50:11;;;;;;;7.05;4.07;;;;;;;21.24;67.03;98691.81;4943889;28;20034;-71
2021/08/21 00:52:38;;;;;;;8.73;4.18;;;;;;;21.22;67.33;98692.03;4954876;28;20558;-71
2021/08/21 00:55:04;;;;;;;6.95;3.90;;;;;;;21.32;66.89;98696.88;4952185;28;20019;-71
2021/08/21 00:57:30;;;;;;;8.63;4.25;;;;;;;21.17;67.19;98697.13;4950613;28;20037;-71
2021/08/21 00:59:55;;;;;;;8.52;4.00;;;;;;;21.18;67.35;98690.84;4936750;28;20268;-72
2021/08/21 01:02:21;;;;;;;7.38;3.92;;;;;;;21.21;67.44;98698.38;4940729;28;20380;-70
2021/08/21 01:04:51;;;;;;;7.53;3.78;;;;;;;21.16;67.41;98695.53;4942353;28;20546;-71
2021/08/21 01:07:19;;;;;;;7.57;3.97;;;;;;;21.18;67.32;98695.31;4927291;28;20531;-70
2021/08/21 01:09:45;;;;;;;8.20;4.25;;;;;;;21.17;67.32;98696.34;4960473;28;20123;-70
2021/08/21 01:12:15;;;;;;;8.35;4.70;;;;;;;21.00;67.73;98686.25;4942234;28;20110;-70
2021/08/21 01:14:42;;;;;;;7.95;4.00;;;;;;;21.06;67.91;98700.44;4954053;28;20035;-70
2021/08/21 01:17:08;;;;;;;10.45;4.25;;;;;;;21.04;67.90;98705.94;4943111;28;20058;-69
2021/08/21 01:19:39;;;;;;;7.00;4.05;;;;;;;21.01;67.98;98697.63;4945985;28;20422;-70
2021/08/21 01:22:10;;;;;;;7.90;4.47;;;;;;;20.98;68.44;98700.72;4942579;28;20043;-71
2021/08/21 01:24:37;;;;;;;6.43;3.90;;;;;;;20.68;68.18;98661.56;4948954;28;20110;-70
2021/08/21 01:27:03;;;;;;;7.38;4.05;;;;;;;21.00;68.39;98702.09;4946407;28;20130;-71
2021/08/21 01:29:28;;;;;;;9.15;4.32;;;;;;;21.08;68.13;98711.63;4952042;28;20101;-70
2021/08/21 01:31:54;;;;;;;7.22;4.07;;;;;;;21.00;68.72;98714.53;4956086;28;20034;-71
2021/08/21 01:34:19;;;;;;;7.18;4.32;;;;;;;20.92;68.95;98711.09;4961178;28;20025;-71
2021/08/21 01:36:49;;;;;;;6.40;3.58;;;;;;;20.62;69.11;98665.06;4960545;28;20037;-71
2021/08/21 01:39:16;;;;;;;8.48;3.90;;;;;;;20.87;68.83;98702.97;4958262;28;20111;-71
2021/08/21 01:41:42;;;;;;;8.57;4.05;;;;;;;20.85;68.93;98702.38;4941863;28;20137;-70
2021/08/21 01:44:13;;;;;;;7.63;4.15;;;;;;;20.84;68.89;98694.66;4932285;28;20225;-69
2021/08/21 01:46:38;;;;;;;7.30;4.03;;;;;;;20.65;68.95;98686.59;4942600;28;20034;-70
2021/08/21 01:49:09;;;;;;;7.45;4.30;;;;;;;20.79;68.90;98705.03;4951432;28;20038;-71
2021/08/21 01:51:52;;;;;;;7.57;4.07;;;;;;;20.81;68.87;98705.63;4970614;28;20034;-71
2021/08/21 01:54:22;;;;;;;7.95;4.05;;;;;;;20.80;69.19;98710.09;4938398;28;20027;-69
2021/08/21 01:56:51;;;;;;;8.15;4.28;;;;;;;20.50;69.06;98660.38;4968244;28;20201;-71
2021/08/21 01:59:23;;;;;;;;;;;;;;;20.74;69.28;98714.41;4959240;28;20031;-71
2021/08/21 02:01:49;;;;;;;6.00;3.60;;;;;;;20.74;68.94;98713.59;4955878;28;19968;-72
2021/08/21 02:04:15;;;;;;;6.70;3.88;;;;;;;20.69;68.56;98713.41;4937228;28;20022;-71
2021/08/21 02:06:42;;;;;;;8.32;4.28;;;;;;;20.74;68.52;98705.66;4955452;28;20720;-71
2021/08/21 02:09:09;;;;;;;9.02;4.07;;;;;;;20.72;68.55;98710.34;4940978;28;20035;-71
2021/08/21 02:11:34;;;;;;;7.90;3.92;;;;;;;20.79;68.44;98707.66;4942171;28;20093;-71
2021/08/21 02:13:59;;;;;;;8.00;3.83;;;;;;;20.53;68.43;98681.13;4938187;28;20442;-71
2021/08/21 02:16:25;;;;;;;7.07;4.00;;;;;;;20.44;68.85;98665.69;4955536;28;20030;-70
2021/08/21 02:18:51;;;;;;;7.80;4.10;;;;;;;20.70;68.95;98717.69;4960743;28;20528;-69
2021/08/21 02:21:19;;;;;;;7.82;3.83;;;;;;;20.62;69.11;98704.69;4932579;28;20177;-69
2021/08/21 02:23:44;;;;;;;6.20;4.00;;;;;;;20.67;69.03;98710.16;4955781;28;20046;-69
2021/08/21 02:26:10;;;;;;;8.20;4.25;;;;;;;20.69;69.16;98697.53;4939147;28;20031;-70
2021/08/21 02:28:36;;;;;;;9.10;4.28;;;;;;;20.68;69.33;98706.47;4938347;28;20334;-70
2021/08/21 02:31:02;;;;;;;7.10;4.07;;;;;;;20.69;69.37;98705.47;4938909;28;20042;-70
2021/08/21 02:33:27;;;;;;;6.50;4.35;;;;;;;20.60;69.40;98701.41;4968688;28;20058;-70
2021/08/21 02:35:52;;;;;;;7.68;4.35;;;;;;;20.32;69.46;98658.41;4951284;28;20121;-70
2021/08/21 02:38:18;;;;;;;7.47;4.20;;;;;;;20.58;69.59;98704.25;4957813;28;20031;-71
2021/08/21 02:40:43;;;;;;;6.72;4.20;;;;;;;20.60;69.48;98704.84;4950248;28;20050;-70
2021/08/21 02:43:09;;;;;;;7.97;4.25;;;;;;;20.25;70.12;98670.00;4934749;28;20023;-71
2021/08/21 02:45:35;;;;;;;6.75;3.92;;;;;;;20.52;69.99;98705.88;4937044;28;20033;-71
2021/08/21 02:48:00;;;;;;;8.27;4.40;;;;;;;20.49;70.21;98706.28;4959259;28;20891;-70
2021/08/21 02:50:26;;;;;;;7.60;4.22;;;;;;;20.20;69.70;98646.84;4954004;28;20769;-70
2021/08/21 02:52:52;;;;;;;8.68;4.30;;;;;;;20.58;69.56;98711.38;4959273;28;20489;-70
2021/08/21 02:55:17;;;;;;;6.50;4.05;;;;;;;20.58;69.49;98714.00;4954429;28;20438;-70
2021/08/21 02:57:42;;;;;;;6.72;3.92;;;;;;;20.48;69.67;98702.03;4955155;28;20023;-70
2021/08/21 03:00:08;;;;;;;6.63;4.20;;;;;;;20.51;69.87;98704.25;4959175;28;20034;-70
2021/08/21 03:02:34;;;;;;;7.95;4.28;;;;;;;20.24;69.92;98668.38;4941881;28;20033;-71
2021/08/21 03:04:59;;;;;;;7.07;3.90;;;;;;;20.46;69.97;98709.38;4944447;28;20050;-70
2021/08/21 03:07:25;;;;;;;7.68;3.97;;;;;;;20.48;70.07;98701.22;4960274;28;20500;-70
2021/08/21 03:09:50;;;;;;;7.50;4.13;;;;;;;20.50;70.15;98700.00;4943611;28;20038;-71
2021/08/21 03:12:15;;;;;;;6.28;4.20;;;;;;;20.47;70.24;98699.59;4952179;28;20047;-69
2021/08/21 03:14:41;;;;;;;7.68;4.05;;;;;;;20.50;70.30;98700.00;4962043;28;20034;-71
2021/08/21 03:17:10;;;;;;;6.97;4.22;;;;;;;20.46;70.07;98695.34;4936766;28;20061;-71
2021/08/21 03:19:35;;;;;;;8.85;4.25;;;;;;;20.48;69.92;98701.22;4944504;28;20077;-71
2021/08/21 03:22:01;;;;;;;6.07;4.00;;;;;;;20.42;69.96;98699.41;4944846;28;20026;-71
2021/08/21 03:24:26;;;;;;;9.60;4.32;;;;;;;20.13;69.73;98659.25;4958506;28;20541;-71
2021/08/21 03:26:52;;;;;;;6.90;3.90;;;;;;;20.49;69.43;98711.56;4944239;28;20027;-70
2021/08/21 03:29:17;;;;;;;8.60;4.50;;;;;;;20.48;69.67;98717.06;4954380;28;20049;-71
2021/08/21 03:31:42;;;;;;;6.72;4.28;;;;;;;20.49;69.21;98716.84;4944365;28;20026;-70
2021/08/21 03:34:08;;;;;;;6.85;4.30;;;;;;;20.40;69.04;98691.69;4940764;28;20037;-70
2021/08/21 03:36:33;;;;;;;6.20;4.05;;;;;;;20.55;69.20;98716.06;4950527;28;20050;-70
2021/08/21 03:38:59;;;;;;;8.15;4.22;;;;;;;20.43;69.78;98711.59;4944939;28;20039;-70
2021/08/21 03:41:24;;;;;;;7.85;4.20;;;;;;;20.40;69.51;98719.94;4940302;28;20498;-70
2021/08/21 03:43:50;;;;;;;7.13;4.00;;;;;;;20.42;69.46;98720.53;4944770;28;20097;-71
2021/08/21 03:46:15;;;;;;;8.45;3.90;;;;;;;20.23;69.55;98683.41;4963449;28;20162;-71
2021/08/21 03:48:41;;;;;;;7.72;4.50;;;;;;;20.37;69.77;98723.81;4941001;28;20595;-70
2021/08/21 03:51:06;;;;;;;7.63;4.18;;;;;;;20.49;69.50;98727.44;4941417;28;20026;-71
2021/08/21 03:53:32;;;;;;;7.35;4.25;;;;;;;20.49;69.94;98723.97;4943742;28;20050;-71
2021/08/21 03:55:57;;;;;;;6.57;3.90;;;;;;;20.54;69.64;98718.91;4937888;28;20152;-71
2021/08/21 03:58:22;;;;;;;6.75;3.95;;;;;;;20.49;69.66;98722.13;4936981;28;20550;-71
2021/08/21 04:00:48;;;;;;;8.00;3.85;;;;;;;20.50;69.64;98730.91;4945701;28;20130;-70
2021/08/21 04:03:13;;;;;;;7.75;4.03;;;;;;;20.43;70.11;98722.97;4960277;28;20494;-70
2021/08/21 04:05:41;;;;;;;6.72;4.47;;;;;;;20.42;70.13;98723.97;4950575;28;20031;-71
2021/08/21 04:08:07;;;;;;;7.43;3.90;;;;;;;20.45;69.73;98718.28;4940425;28;20093;-72
2021/08/21 04:10:32;;;;;;;8.73;4.10;;;;;;;20.48;69.69;98722.34;4942478;28;20643;-71
2021/08/21 04:12:57;;;;;;;8.45;4.88;;;;;;;20.32;70.25;98713.84;4940138;28;20466;-70
2021/08/21 04:15:23;;;;;;;7.72;3.97;;;;;;;20.39;70.09;98715.66;4933670;28;20027;-71
2021/08/21 04:17:48;;;;;;;6.47;4.25;;;;;;;20.34;70.54;98721.56;4935904;28;20035;-70
2021/08/21 04:20:14;;;;;;;6.32;3.83;;;;;;;20.47;69.91;98726.81;4955171;28;20074;-70
2021/08/21 04:22:39;;;;;;;7.03;4.50;;;;;;;20.45;70.02;98726.22;4954621;28;20533;-71
2021/08/21 04:25:05;;;;;;;7.03;4.13;;;;;;;20.43;69.88;98733.53;4955768;28;20508;-71
2021/08/21 04:27:31;;;;;;;6.88;4.28;;;;;;;20.35;70.31;98739.03;4960509;28;20082;-71
2021/08/21 04:29:56;;;;;;;7.82;4.25;;;;;;;20.31;70.51;98722.78;4953007;28;20530;-70
2021/08/21 04:32:22;;;;;;;6.07;3.70;;;;;;;20.31;70.87;98730.69;4958110;28;20051;-70
2021/08/21 04:34:47;;;;;;;7.03;4.03;;;;;;;20.30;71.28;98734.38;4940218;28;20229;-71
2021/08/21 04:37:13;;;;;;;6.20;4.10;;;;;;;19.93;71.53;98689.13;4956784;28;20035;-70
2021/08/21 04:39:38;;;;;;;6.97;4.45;;;;;;;20.22;71.93;98752.22;4957239;28;20038;-71
2021/08/21 04:42:04;;;;;;;6.97;4.28;;;;;;;20.20;71.75;98751.63;4958857;28;20661;-71
2021/08/21 04:44:29;;;;;;;7.18;4.15;;;;;;;20.20;71.95;98752.44;4957854;28;20069;-71
2021/08/21 04:46:55;;;;;;;6.65;4.38;;;;;;;20.22;71.93;98746.97;4944643;28;20057;-72
2021/08/21 04:49:20;;;;;;;8.05;4.15;;;;;;;20.24;72.35;98760.75;4943430;28;20034;-70
2021/08/21 04:51:46;;;;;;;7.70;4.63;;;;;;;20.15;72.32;98747.78;4946418;28;20046;-71
2021/08/21 04:54:11;;;;;;;8.20;4.25;;;;;;;19.95;71.91;98710.00;4958452;28;21047;-71
2021/08/21 04:56:36;;;;;;;7.07;4.30;;;;;;;20.13;71.94;98751.63;4949089;28;20199;-71
2021/08/21 04:59:02;;;;;;;6.75;4.30;;;;;;;20.11;72.30;98749.19;4949111;28;20824;-71
2021/08/21 05:01:27;;;;;;;8.48;4.50;;;;;;;20.22;72.12;98766.25;4961210;28;20038;-71
2021/08/21 05:03:53;;;;;;;8.65;4.43;;;;;;;20.25;71.67;98765.03;4946219;28;20031;-71
2021/08/21 05:06:18;;;;;;;8.82;4.22;;;;;;;20.29;71.16;98764.41;4962024;28;21485;-71
2021/08/21 05:08:44;;;;;;;8.63;4.40;;;;;;;20.38;70.84;98767.66;4945595;28;20118;-70
2021/08/21 05:11:10;;;;;;;7.75;4.50;;;;;;;20.36;70.53;98764.41;4959926;28;20134;-71
2021/08/21 05:13:35;;;;;;;8.18;4.50;;;;;;;20.32;70.54;98765.84;4964057;28;20030;-71
2021/08/21 05:16:01;;;;;;;8.43;4.13;;;;;;;20.28;70.39;98762.81;4960919;28;20394;-71
2021/08/21 05:18:36;;;;;;;8.70;4.03;;;;;;;20.33;70.44;98767.47;4954208;28;20043;-71
2021/08/21 05:21:10;;;;;;;7.70;4.47;;;;;;;20.32;71.27;98776.41;4963427;28;20039;-71
2021/08/21 05:23:39;;;;;;;7.32;3.92;;;;;;;20.38;71.34;98774.78;4956506;28;20038;-71
2021/08/21 05:26:05;;;;;;;6.93;4.05;;;;;;;20.34;71.49;98784.94;4964297;28;20410;-71
2021/08/21 05:28:30;;;;;;;7.63;4.60;;;;;;;20.28;71.48;98777.81;4957116;28;20038;-71
2021/08/21 05:30:56;;;;;;;8.07;4.07;;;;;;;20.34;70.95;98779.66;4943553;28;20101;-71
2021/08/21 05:33:22;;;;;;;7.53;4.07;;;;;;;20.31;71.22;98785.34;4945097;28;20116;-71
2021/08/21 05:35:47;;;;;;;8.30;4.13;;;;;;;20.31;71.53;98793.25;4949534;28;20607;-70
2021/08/21 05:38:13;;;;;;;7.15;4.38;;;;;;;20.23;71.38;98782.91;4949255;28;20041;-71
2021/08/21 05:40:39;;;;;;;8.13;4.20;;;;;;;20.38;71.00;98790.63;4955002;28;20023;-71
2021/08/21 05:43:05;;;;;;;10.63;6.10;;;;;;;20.21;71.26;98774.38;4947238;28;20030;-72
2021/08/21 05:45:30;;;;;;;7.35;4.78;;;;;;;20.22;71.17;98792.63;4958465;28;20022;-71
2021/08/21 05:47:56;;;;;;;7.75;4.32;;;;;;;20.24;71.17;98789.81;4953391;28;20142;-70
2021/08/21 05:50:22;;;;;;;7.10;4.25;;;;;;;20.22;71.43;98789.19;4940389;28;20047;-72
2021/08/21 05:52:48;;;;;;;8.18;4.63;;;;;;;20.33;71.21;98794.69;4940466;28;20042;-71
2021/08/21 05:55:13;;;;;;;8.65;4.32;;;;;;;20.32;70.77;98789.63;4935815;28;20462;-71
2021/08/21 05:57:39;;;;;;;8.90;4.75;;;;;;;20.27;71.61;98792.03;4939727;28;20073;-71
2021/08/21 06:00:05;;;;;;;9.23;4.57;;;;;;;20.29;71.25;98797.94;4938116;28;20085;-71
2021/08/21 06:02:31;;;;;;;7.95;4.70;;;;;;;20.31;71.59;98801.19;4956036;28;20031;-72
2021/08/21 06:04:56;;;;;;;8.70;4.88;;;;;;;20.15;71.17;98763.63;4933628;28;20039;-70
2021/08/21 06:07:22;;;;;;;10.75;4.47;;;;;;;20.40;71.04;98799.97;4931880;28;20565;-71
2021/08/21 06:09:47;;;;;;;6.20;4.30;;;;;;;20.41;71.08;98811.31;4953498;28;20114;-72
2021/08/21 06:12:13;;;;;;;7.50;4.20;;;;;;;20.41;71.08;98808.69;4933574;28;20434;-70
2021/08/21 06:14:39;;;;;;;7.05;4.15;;;;;;;20.43;71.32;98810.13;4966893;28;20047;-71
2021/08/21 06:17:05;;;;;;;8.02;4.25;;;;;;;20.42;71.09;98805.03;4955908;28;20027;-71
2021/08/21 06:19:31;;;;;;;7.05;4.55;;;;;;;20.41;70.92;98806.88;4968497;28;20596;-71
2021/08/21 06:21:56;;;;;;;6.43;4.18;;;;;;;20.42;70.80;98808.47;4969430;28;20035;-70
2021/08/21 06:24:21;;;;;;;8.80;4.53;;;;;;;20.29;70.65;98777.63;4940585;28;20554;-71
2021/08/21 06:26:47;;;;;;;9.43;4.43;;;;;;;20.52;70.86;98816.81;4941696;28;20023;-71
2021/08/21 06:29:12;;;;;;;7.57;4.75;;;;;;;20.61;70.81;98814.00;4949258;28;20573;-72
2021/08/21 06:31:38;;;;;;;7.63;4.50;;;;;;;20.57;70.69;98808.28;4941646;28;20132;-70
2021/08/21 06:34:03;;;;;;;6.60;4.20;;;;;;;20.69;68.70;98825.16;4961713;28;20217;-70
2021/08/21 06:36:29;;;;;;;14.95;10.57;;;;;;;20.55;68.39;98779.44;4965746;28;20421;-72
2021/08/21 06:38:54;;;;;;;8.65;4.40;;;;;;;20.82;68.17;98810.31;4948338;28;20027;-72
2021/08/21 06:41:20;;;;;;;9.02;4.90;;;;;;;20.81;68.20;98817.44;4950523;28;20050;-71
2021/08/21 06:43:45;;;;;;;7.07;4.60;;;;;;;20.94;67.58;98816.59;4953973;28;20151;-71
2021/08/21 06:46:10;;;;;;;9.70;4.55;;;;;;;20.93;67.20;98814.97;4937159;28;20891;-72
2021/08/21 06:48:36;;;;;;;10.43;7.18;;;;;;;20.99;67.30;98823.91;4955591;28;20497;-71
2021/08/21 06:51:01;;;;;;;7.43;5.05;;;;;;;21.13;67.82;98825.50;4936984;28;20042;-72
2021/08/21 06:53:29;;;;;;;7.25;4.50;;;;;;;21.05;68.56;98823.09;4937062;28;20033;-71
2021/08/21 06:55:55;;;;;;;8.60;4.25;;;;;;;21.14;66.58;98837.69;4939638;28;20488;-71
2021/08/21 06:58:20;;;;;;;9.68;4.72;;;;;;;21.20;65.46;98830.75;4967326;28;20039;-72
2021/08/21 07:00:45;;;;;;;7.13;4.25;;;;;;;21.28;66.23;98830.53;4948765;28;20114;-70
2021/08/21 07:03:11;;;;;;;8.65;4.47;;;;;;;21.27;67.01;98835.00;4939126;28;20026;-69
2021/08/21 07:05:36;;;;;;;25.05;19.77;;;;;;;21.15;67.95;98839.31;4941658;28;20039;-70
2021/08/21 07:08:02;;;;;;;21.33;15.27;;;;;;;21.05;66.01;98823.09;4940616;28;20043;-71
2021/08/21 07:10:28;;;;;;;14.48;9.70;;;;;;;21.17;66.22;98842.56;4944977;28;20106;-71
2021/08/21 07:12:53;;;;;;;9.88;6.40;;;;;;;21.09;67.84;98833.03;4952714;28;20130;-71
2021/08/21 07:15:19;;;;;;;7.90;5.50;;;;;;;21.09;68.16;98824.28;4955682;28;20059;-70
2021/08/21 07:17:44;;;;;;;9.50;5.38;;;;;;;21.20;68.33;98831.56;4936482;28;20031;-71
2021/08/21 07:20:10;;;;;;;9.52;5.68;;;;;;;21.29;67.40;98824.22;4949629;28;20412;-72
2021/08/21 07:22:36;;;;;;;8.02;5.35;;;;;;;21.41;67.21;98833.13;4954693;28;20041;-72
2021/08/21 07:25:01;;;;;;;9.52;6.55;;;;;;;21.10;67.03;98789.72;4946642;28;20042;-70
2021/08/21 07:27:27;;;;;;;9.32;7.00;;;;;;;21.42;66.52;98824.16;4934823;28;20031;-72
2021/08/21 07:29:52;;;;;;;10.27;5.75;;;;;;;21.45;66.30;98825.63;4933434;28;20059;-72
2021/08/21 07:32:18;;;;;;;11.63;7.00;;;;;;;21.43;66.74;98809.09;4931114;28;20462;-71
2021/08/21 07:34:43;;;;;;;8.70;5.55;;;;;;;21.61;66.50;98814.56;4948967;28;20027;-72
2021/08/21 07:37:09;;;;;;;8.52;4.75;;;;;;;21.58;65.95;98817.63;4939855;28;20466;-72
2021/08/21 07:39:34;;;;;;;8.85;4.90;;;;;;;21.32;66.63;98773.56;4949956;28;20030;-70
2021/08/21 07:42:00;;;;;;;9.48;4.68;;;;;;;21.63;66.15;98809.03;4949142;28;20110;-65
2021/08/21 07:44:25;;;;;;;7.10;4.60;;;;;;;21.60;66.28;98815.56;4944982;28;20015;-64
2021/08/21 07:46:50;;;;;;;7.30;4.03;;;;;;;21.69;65.30;98824.09;4947044;28;20465;-64
2021/08/21 07:49:16;;;;;;;8.00;4.53;;;;;;;21.85;64.78;98830.72;4949908;28;20058;-64
2021/08/21 07:51:42;;;;;;;7.22;4.13;;;;;;;21.94;63.71;98815.38;4934638;28;20558;-65
2021/08/21 07:54:07;;;;;;;9.75;4.22;;;;;;;22.17;62.19;98815.63;4966094;28;20033;-64
2021/08/21 07:56:32;;;;;;;8.23;4.28;;;;;;;22.18;63.51;98822.56;4946526;28;20046;-66
2021/08/21 07:58:58;;;;;;;7.13;4.30;;;;;;;22.23;63.16;98813.97;4947341;28;20038;-64
2021/08/21 08:01:24;;;;;;;12.07;7.82;;;;;;;22.37;62.92;98818.16;4950542;28;20043;-65
2021/08/21 08:03:50;;;;;;;7.80;4.25;;;;;;;22.32;62.13;98828.59;4954094;28;20027;-66
2021/08/21 08:06:15;;;;;;;7.85;4.20;;;;;;;22.38;62.30;98827.75;4950139;28;20035;-62
2021/08/21 08:08:41;;;;;;;7.93;4.28;;;;;;;22.15;62.58;98779.81;4950688;28;20135;-62
2021/08/21 08:11:07;;;;;;;7.15;4.60;;;;;;;22.48;63.00;98834.38;4945272;28;20078;-62
2021/08/21 08:13:32;;;;;;;7.57;4.00;;;;;;;22.28;62.97;98830.06;4948701;28;20026;-61
2021/08/21 08:15:58;;;;;;;8.00;3.90;;;;;;;22.36;63.53;98829.81;4951007;28;20041;-61
2021/08/21 08:18:23;;;;;;;10.15;4.70;;;;;;;22.36;62.91;98834.25;4947043;28;20026;-62
2021/08/21 08:20:49;;;;;;;6.78;4.22;;;;;;;22.42;64.08;98851.97;4948245;28;20086;-61
2021/08/21 08:23:14;;;;;;;7.20;4.70;;;;;;;22.55;63.25;98849.19;4950858;28;20535;-60
2021/08/21 08:25:40;;;;;;;8.93;4.80;;;;;;;22.71;63.10;98847.00;4969340;28;20378;-61
2021/08/21 08:28:05;;;;;;;7.65;4.40;;;;;;;22.84;62.14;98845.06;4948705;28;20505;-62
2021/08/21 08:30:31;;;;;;;8.75;4.43;;;;;;;22.44;62.60;98820.75;4959039;28;20027;-64
2021/08/21 08:32:57;;;;;;;7.45;4.43;;;;;;;22.76;62.58;98848.00;4956061;28;20050;-62
2021/08/21 08:35:22;;;;;;;8.80;4.30;;;;;;;22.84;61.86;98844.25;4951172;28;20835;-62
2021/08/21 08:37:48;;;;;;;7.30;4.72;;;;;;;23.01;62.55;98845.28;4959810;28;20039;-62
2021/08/21 08:40:13;;;;;;;8.98;4.25;;;;;;;22.98;63.17;98856.38;4960386;28;20506;-61
2021/08/21 08:42:43;;;;;;;6.93;4.35;;;;;;;23.07;62.87;98851.59;4967786;28;20037;-62
2021/08/21 08:45:10;;;;;;;9.57;4.80;;;;;;;23.53;61.56;98852.09;4955588;28;20031;-62
2021/08/21 08:47:36;;;;;;;7.53;4.63;;;;;;;24.13;59.30;98859.28;4948264;28;20429;-61
2021/08/21 08:50:04;;;;;;;7.30;4.10;;;;;;;24.33;56.97;98822.63;4946946;28;20057;-62
2021/08/21 08:52:30;;;;;;;6.95;4.32;;;;;;;24.17;59.12;98858.63;4962737;28;20122;-62
2021/08/21 08:54:56;;;;;;;6.57;4.18;;;;;;;24.11;58.90;98856.06;4969039;28;20541;-62
2021/08/21 08:57:34;;;;;;;6.32;4.03;;;;;;;24.29;57.91;98855.19;4960667;28;20034;-61
2021/08/21 09:00:00;;;;;;;6.57;4.18;;;;;;;24.58;58.48;98850.84;4958469;28;20031;-61
2021/08/21 09:02:40;;;;;;;7.07;4.22;;;;;;;24.49;57.99;98852.22;4958635;28;20034;-61
2021/08/21 09:05:09;;;;;;;6.47;4.38;;;;;;;24.01;58.76;98821.28;4947768;28;20031;-60
2021/08/21 09:07:42;;;;;;;8.23;4.20;;;;;;;23.92;59.42;98847.34;4966769;28;20049;-61
2021/08/21 09:10:23;;;;;;;8.10;4.43;;;;;;;23.67;60.06;98805.78;4963478;28;20564;-61
2021/08/21 09:12:51;;;;;;;6.80;4.45;;;;;;;23.97;59.70;98850.94;4959242;28;20070;-61
2021/08/21 09:15:29;;;;;;;6.30;4.13;;;;;;;23.93;59.35;98844.47;4956849;28;20505;-61
2021/08/21 09:18:01;;;;;;;8.57;4.40;;;;;;;23.53;59.96;98796.38;4954759;28;20097;-62
2021/08/21 09:20:27;;;;;;;7.78;4.40;;;;;;;23.87;60.33;98847.22;4960647;28;20126;-61
2021/08/21 09:22:53;;;;;;;6.63;4.18;;;;;;;23.89;59.91;98842.47;4975550;28;20035;-61
2021/08/21 09:25:29;;;;;;;7.55;4.47;;;;;;;23.92;58.66;98850.00;4955920;28;20477;-62
2021/08/21 09:27:55;;;;;;;8.48;4.53;;;;;;;23.88;59.37;98844.34;4947556;28;20027;-61
2021/08/21 09:30:20;;;;;;;8.13;5.25;;;;;;;23.62;59.72;98800.34;4961517;28;20070;-62
2021/08/21 09:32:46;;;;;;;9.82;4.80;;;;;;;23.51;59.78;98798.44;4957147;28;20062;-59
2021/08/21 09:35:12;;;;;;;23.92;21.27;;;;;;;23.76;60.18;98830.16;4962047;28;20043;-61
2021/08/21 09:37:49;;;;;;;11.57;8.90;;;;;;;23.92;60.00;98842.84;4959586;28;20522;-61
2021/08/21 09:40:40;;;;;;;9.30;6.15;;;;;;;-145.70;100.00;63560.63;4970289;28;20031;-61
2021/08/21 09:43:42;;;;;;;8.63;4.88;;;;;;;23.92;60.00;98842.84;4957544;28;20077;-61
2021/08/21 09:46:10;;;;;;;9.25;4.40;;;;;;;23.93;60.36;98839.16;4948793;28;20114;-61
2021/08/21 09:48:53;;;;;;;7.85;5.28;;;;;;;23.83;59.05;98800.91;4963642;28;20047;-62
2021/08/21 09:51:32;;;;;;;9.05;4.75;;;;;;;23.89;59.53;98792.03;4955230;28;20033;-61
2021/08/21 09:54:00;;;;;;;8.03;4.37;;;;;;;24.17;59.06;98823.28;4952015;28;20050;-62
2021/08/21 09:56:37;;;;;;;7.18;3.97;;;;;;;24.17;59.52;98826.75;4956230;28;20019;-62
2021/08/21 09:59:03;;;;;;;8.18;4.55;;;;;;;24.18;59.56;98827.56;4967299;28;20122;-61
2021/08/21 10:01:29;;;;;;;14.73;10.10;;;;;;;24.19;58.71;98813.25;4944623;28;20031;-61
2021/08/21 10:03:56;;;;;;;14.07;9.43;;;;;;;24.40;59.20;98822.50;4949905;28;20027;-62
2021/08/21 10:06:22;;;;;;;21.00;14.10;;;;;;;24.60;58.69;98824.84;4966776;28;20568;-62
2021/08/21 10:08:49;;;;;;;24.90;18.10;;;;;;;24.63;58.92;98820.94;4954711;28;20038;-62
2021/08/21 10:11:16;;;;;;;6.88;4.30;;;;;;;24.62;57.43;98820.13;4953947;28;20031;-62
2021/08/21 10:13:42;;;;;;;12.63;7.82;;;;;;;24.64;58.98;98819.88;4947713;28;20122;-62
2021/08/21 10:16:10;;;;;;;8.65;4.93;;;;;;;24.55;57.98;98787.53;4951059;28;20061;-62
2021/08/21 10:18:36;;;;;;;14.43;8.30;;;;;;;24.86;57.87;98820.09;4965181;28;20034;-62
2021/08/21 10:21:02;;;;;;;8.52;4.95;;;;;;;24.78;56.60;98812.50;4957999;28;20282;-61
2021/08/21 10:23:27;;;;;;;8.68;4.30;;;;;;;24.47;57.22;98786.00;4950251;28;20143;-62
2021/08/21 10:25:58;;;;;;;7.15;4.35;;;;;;;24.87;56.56;98811.91;4930764;28;20043;-62
2021/08/21 10:28:32;;;;;;;8.15;4.40;;;;;;;25.02;56.92;98795.44;4949402;28;20489;-61
2021/08/21 10:30:57;;;;;;;8.52;4.00;;;;;;;25.17;53.75;98802.94;4948907;28;20028;-61
2021/08/21 10:33:23;;;;;;;10.00;4.25;;;;;;;25.33;55.97;98801.44;4949742;28;20066;-61
2021/08/21 10:35:56;;;;;;;7.53;4.00;;;;;;;25.57;53.90;98804.00;4945524;28;20051;-62
2021/08/21 10:38:33;;;;;;;8.75;5.07;;;;;;;25.41;55.26;98811.72;4971864;28;20662;-61
2021/08/21 10:41:11;;;;;;;6.20;3.80;;;;;;;25.36;55.05;98808.94;4948532;28;20019;-61
2021/08/21 10:44:03;;;;;;;8.00;4.05;;;;;;;25.37;55.47;98809.75;4949027;28;20023;-61
2021/08/21 10:46:28;;;;;;;9.77;5.00;;;;;;;25.21;56.83;98772.19;4950040;28;20055;-61
2021/08/21 10:48:54;;;;;;;8.48;4.90;;;;;;;25.32;56.94;98791.84;4953938;28;20030;-62
2021/08/21 10:51:31;;;;;;;13.02;8.07;;;;;;;25.14;55.39;98798.09;4958754;28;20034;-61
2021/08/21 10:53:57;;;;;;;9.77;5.80;;;;;;;25.26;56.23;98798.09;4953208;28;20039;-63
2021/08/21 10:56:34;;;;;;;10.13;4.18;;;;;;;25.80;51.44;98785.25;4953711;28;20035;-61
2021/08/21 10:58:59;;;;;;;9.98;4.07;;;;;;;25.94;51.99;98791.13;4962119;28;20037;-61
2021/08/21 11:01:25;;;;;;;7.32;4.40;;;;;;;25.99;51.85;98788.53;4957845;28;20027;-61
2021/08/21 11:03:51;;;;;;;7.68;3.90;;;;;;;25.99;50.13;98783.22;4958054;28;20035;-62
2021/08/21 11:06:17;;;;;;;8.05;3.83;;;;;;;25.97;51.65;98790.63;4949133;28;20405;-62
2021/08/21 11:08:42;;;;;;;11.52;4.38;;;;;;;25.80;48.68;98739.19;4955410;28;20036;-62
2021/08/21 11:13:49;;;;;;;8.25;4.00;;;;;;;25.95;47.94;98738.66;4955109;28;20672;-62
2021/08/21 11:16:14;;;;;;;7.15;3.88;;;;;;;26.31;47.67;98779.19;4955634;28;20027;-62
2021/08/21 11:18:45;;;;;;;6.88;3.33;;;;;;;26.64;46.09;98773.03;4969658;28;20041;-62
2021/08/21 11:21:32;;;;;;;9.05;4.20;;;;;;;26.80;46.84;98771.41;4956353;28;20035;-62
2021/08/21 11:23:58;;;;;;;9.13;4.13;;;;;;;26.81;46.38;98771.13;4953399;28;20904;-61
2021/08/21 11:26:24;;;;;;;6.35;3.63;;;;;;;26.86;46.50;98775.72;4968227;28;20036;-61
2021/08/21 11:29:08;;;;;;;7.13;3.60;;;;;;;26.80;46.64;98780.19;4951207;28;20062;-63
2021/08/21 11:31:51;;;;;;;8.07;3.60;;;;;;;26.89;46.63;98769.06;4949177;28;20038;-62
2021/08/21 11:34:17;;;;;;;10.00;3.53;;;;;;;26.95;46.74;98766.25;4947777;28;20357;-62